sensor_id;sensor_type;location;lat;lon;timestamp;P1;durP1;ratioP1;P2;durP2;ratioP2
66487;SDS011;53304;54.550;18.526;2024-01-15T00:02:17;1.88;;;0.80;;
66487;SDS011;53304;54.550;18.526;2024-01-15T00:04:45;1.33;;;0.80;;
66487;SDS011;53304;54.550;18.526;2024-01-15T00:07:10;2.63;;;1.02;;
66487;SDS011;53304;54.550;18.526;2024-01-15T00:09:36;1.77;;;0.88;;
66487;SDS011;53304;54.550;18.526;2024-01-15T00:12:01;1.52;;;0.70;;
66487;SDS011;53304;54.550;18.526;2024-01-15T00:14:27;2.13;;;0.80;;
66487;SDS011;53304;54.550;18.526;2024-01-15T00:16:53;1.58;;;0.80;;
66487;SDS011;53304;54.550;18.526;2024-01-15T00:19:20;1.65;;;0.77;;
66487;SDS011;53304;54.550;18.526;2024-01-15T00:21:49;2.13;;;0.80;;
66487;SDS011;53304;54.550;18.526;2024-01-15T00:27:17;2.92;;;0.75;;
66487;SDS011;53304;54.550;18.526;2024-01-15T00:29:42;1.65;;;0.80;;
66487;SDS011;53304;54.550;18.526;2024-01-15T00:32:07;2.42;;;0.85;;
66487;SDS011;53304;54.550;18.526;2024-01-15T00:34:35;1.25;;;0.82;;
66487;SDS011;53304;54.550;18.526;2024-01-15T00:37:00;1.25;;;0.70;;
66487;SDS011;53304;54.550;18.526;2024-01-15T00:39:26;1.77;;;0.77;;
66487;SDS011;53304;54.550;18.526;2024-01-15T00:41:51;2.85;;;0.80;;
66487;SDS011;53304;54.550;18.526;2024-01-15T00:44:17;2.22;;;0.82;;
66487;SDS011;53304;54.550;18.526;2024-01-15T00:46:43;2.20;;;0.80;;
66487;SDS011;53304;54.550;18.526;2024-01-15T00:49:09;1.45;;;0.80;;
66487;SDS011;53304;54.550;18.526;2024-01-15T00:51:35;2.10;;;0.90;;
66487;SDS011;53304;54.550;18.526;2024-01-15T00:54:03;1.67;;;0.80;;
66487;SDS011;53304;54.550;18.526;2024-01-15T00:56:28;1.70;;;0.80;;
66487;SDS011;53304;54.550;18.526;2024-01-15T00:58:53;0.70;;;0.60;;
66487;SDS011;53304;54.550;18.526;2024-01-15T01:01:19;0.70;;;0.70;;
66487;SDS011;53304;54.550;18.526;2024-01-15T01:03:44;1.73;;;0.73;;
66487;SDS011;53304;54.550;18.526;2024-01-15T01:06:12;1.80;;;0.75;;
66487;SDS011;53304;54.550;18.526;2024-01-15T01:08:38;1.25;;;0.63;;
66487;SDS011;53304;54.550;18.526;2024-01-15T01:11:04;2.10;;;0.82;;
66487;SDS011;53304;54.550;18.526;2024-01-15T01:13:29;1.45;;;0.70;;
66487;SDS011;53304;54.550;18.526;2024-01-15T01:15:57;1.98;;;0.70;;
66487;SDS011;53304;54.550;18.526;2024-01-15T01:18:23;1.85;;;0.70;;
66487;SDS011;53304;54.550;18.526;2024-01-15T01:20:48;1.85;;;0.80;;
66487;SDS011;53304;54.550;18.526;2024-01-15T01:23:13;1.58;;;0.50;;
66487;SDS011;53304;54.550;18.526;2024-01-15T01:25:39;2.03;;;0.80;;
66487;SDS011;53304;54.550;18.526;2024-01-15T01:28:04;1.35;;;0.77;;
66487;SDS011;53304;54.550;18.526;2024-01-15T01:30:30;1.05;;;0.70;;
66487;SDS011;53304;54.550;18.526;2024-01-15T01:32:55;1.20;;;0.70;;
66487;SDS011;53304;54.550;18.526;2024-01-15T01:35:22;0.95;;;0.60;;
66487;SDS011;53304;54.550;18.526;2024-01-15T01:37:47;1.40;;;0.75;;
66487;SDS011;53304;54.550;18.526;2024-01-15T01:40:13;1.98;;;0.80;;
66487;SDS011;53304;54.550;18.526;2024-01-15T01:42:38;1.38;;;0.80;;
66487;SDS011;53304;54.550;18.526;2024-01-15T01:45:06;2.80;;;0.75;;
66487;SDS011;53304;54.550;18.526;2024-01-15T01:47:32;1.60;;;0.70;;
66487;SDS011;53304;54.550;18.526;2024-01-15T01:49:57;2.25;;;0.75;;
66487;SDS011;53304;54.550;18.526;2024-01-15T01:52:23;2.88;;;0.77;;
66487;SDS011;53304;54.550;18.526;2024-01-15T01:54:48;1.33;;;0.60;;
66487;SDS011;53304;54.550;18.526;2024-01-15T01:57:16;0.98;;;0.70;;
66487;SDS011;53304;54.550;18.526;2024-01-15T01:59:42;2.63;;;0.70;;
66487;SDS011;53304;54.550;18.526;2024-01-15T02:02:08;1.77;;;0.75;;
66487;SDS011;53304;54.550;18.526;2024-01-15T02:04:33;0.40;;;0.40;;
66487;SDS011;53304;54.550;18.526;2024-01-15T02:07:01;1.30;;;0.68;;
66487;SDS011;53304;54.550;18.526;2024-01-15T02:09:29;5.53;;;0.70;;
66487;SDS011;53304;54.550;18.526;2024-01-15T02:11:54;0.98;;;0.70;;
66487;SDS011;53304;54.550;18.526;2024-01-15T02:14:20;1.15;;;0.77;;
66487;SDS011;53304;54.550;18.526;2024-01-15T02:16:46;14.15;;;1.00;;
66487;SDS011;53304;54.550;18.526;2024-01-15T02:19:15;1.13;;;0.70;;
66487;SDS011;53304;54.550;18.526;2024-01-15T02:21:42;1.55;;;0.70;;
66487;SDS011;53304;54.550;18.526;2024-01-15T02:24:07;2.58;;;0.60;;
66487;SDS011;53304;54.550;18.526;2024-01-15T02:26:33;1.20;;;0.70;;
66487;SDS011;53304;54.550;18.526;2024-01-15T02:29:00;1.48;;;0.60;;
66487;SDS011;53304;54.550;18.526;2024-01-15T02:31:26;1.33;;;0.80;;
66487;SDS011;53304;54.550;18.526;2024-01-15T02:33:52;1.67;;;0.77;;
66487;SDS011;53304;54.550;18.526;2024-01-15T02:36:17;1.38;;;0.70;;
66487;SDS011;53304;54.550;18.526;2024-01-15T02:38:43;2.58;;;0.90;;
66487;SDS011;53304;54.550;18.526;2024-01-15T02:41:08;1.20;;;0.77;;
66487;SDS011;53304;54.550;18.526;2024-01-15T02:43:33;3.03;;;0.85;;
66487;SDS011;53304;54.550;18.526;2024-01-15T02:45:59;1.17;;;0.75;;
66487;SDS011;53304;54.550;18.526;2024-01-15T02:48:24;0.73;;;0.50;;
66487;SDS011;53304;54.550;18.526;2024-01-15T02:50:49;0.90;;;0.68;;
66487;SDS011;53304;54.550;18.526;2024-01-15T02:53:15;0.85;;;0.70;;
66487;SDS011;53304;54.550;18.526;2024-01-15T02:55:40;1.17;;;0.70;;
66487;SDS011;53304;54.550;18.526;2024-01-15T02:58:06;1.95;;;1.13;;
66487;SDS011;53304;54.550;18.526;2024-01-15T03:00:32;1.13;;;0.60;;
66487;SDS011;53304;54.550;18.526;2024-01-15T03:02:57;1.13;;;0.60;;
66487;SDS011;53304;54.550;18.526;2024-01-15T03:05:23;0.75;;;0.70;;
66487;SDS011;53304;54.550;18.526;2024-01-15T03:07:48;1.77;;;0.80;;
66487;SDS011;53304;54.550;18.526;2024-01-15T03:10:14;0.73;;;0.65;;
66487;SDS011;53304;54.550;18.526;2024-01-15T03:12:41;1.17;;;0.60;;
66487;SDS011;53304;54.550;18.526;2024-01-15T03:15:07;1.73;;;0.60;;
66487;SDS011;53304;54.550;18.526;2024-01-15T03:17:32;0.93;;;0.65;;
66487;SDS011;53304;54.550;18.526;2024-01-15T03:19:58;0.98;;;0.70;;
66487;SDS011;53304;54.550;18.526;2024-01-15T03:22:23;1.92;;;0.88;;
66487;SDS011;53304;54.550;18.526;2024-01-15T03:24:48;1.85;;;0.93;;
66487;SDS011;53304;54.550;18.526;2024-01-15T03:27:14;2.38;;;0.73;;
66487;SDS011;53304;54.550;18.526;2024-01-15T03:29:40;1.58;;;0.63;;
66487;SDS011;53304;54.550;18.526;2024-01-15T03:32:06;1.30;;;0.60;;
66487;SDS011;53304;54.550;18.526;2024-01-15T03:34:31;1.92;;;0.85;;
66487;SDS011;53304;54.550;18.526;2024-01-15T03:36:59;1.45;;;0.88;;
66487;SDS011;53304;54.550;18.526;2024-01-15T03:39:25;1.98;;;0.77;;
66487;SDS011;53304;54.550;18.526;2024-01-15T03:41:50;1.50;;;0.88;;
66487;SDS011;53304;54.550;18.526;2024-01-15T03:44:16;1.30;;;0.82;;
66487;SDS011;53304;54.550;18.526;2024-01-15T03:46:43;1.70;;;0.77;;
66487;SDS011;53304;54.550;18.526;2024-01-15T03:49:11;1.02;;;0.70;;
66487;SDS011;53304;54.550;18.526;2024-01-15T03:51:37;1.50;;;0.90;;
66487;SDS011;53304;54.550;18.526;2024-01-15T03:54:02;1.20;;;0.82;;
66487;SDS011;53304;54.550;18.526;2024-01-15T03:56:32;1.23;;;0.70;;
66487;SDS011;53304;54.550;18.526;2024-01-15T03:58:58;0.90;;;0.70;;
66487;SDS011;53304;54.550;18.526;2024-01-15T04:01:23;0.80;;;0.70;;
66487;SDS011;53304;54.550;18.526;2024-01-15T04:03:51;0.80;;;0.70;;
66487;SDS011;53304;54.550;18.526;2024-01-15T04:06:17;1.70;;;0.80;;
66487;SDS011;53304;54.550;18.526;2024-01-15T04:08:44;1.95;;;0.68;;
66487;SDS011;53304;54.550;18.526;2024-01-15T04:11:09;1.02;;;0.73;;
66487;SDS011;53304;54.550;18.526;2024-01-15T04:13:37;1.38;;;0.50;;
66487;SDS011;53304;54.550;18.526;2024-01-15T04:16:05;0.73;;;0.60;;
66487;SDS011;53304;54.550;18.526;2024-01-15T04:18:30;0.90;;;0.77;;
66487;SDS011;53304;54.550;18.526;2024-01-15T04:20:58;2.45;;;0.80;;
66487;SDS011;53304;54.550;18.526;2024-01-15T04:23:23;1.45;;;0.80;;
66487;SDS011;53304;54.550;18.526;2024-01-15T04:25:49;1.20;;;0.63;;
66487;SDS011;53304;54.550;18.526;2024-01-15T04:28:14;1.63;;;0.70;;
66487;SDS011;53304;54.550;18.526;2024-01-15T04:30:40;2.25;;;0.82;;
66487;SDS011;53304;54.550;18.526;2024-01-15T04:33:05;2.95;;;0.77;;
66487;SDS011;53304;54.550;18.526;2024-01-15T04:35:31;2.42;;;0.80;;
66487;SDS011;53304;54.550;18.526;2024-01-15T04:37:56;1.13;;;0.70;;
66487;SDS011;53304;54.550;18.526;2024-01-15T04:40:24;1.65;;;0.82;;
66487;SDS011;53304;54.550;18.526;2024-01-15T04:42:52;1.58;;;0.70;;
66487;SDS011;53304;54.550;18.526;2024-01-15T04:45:18;0.63;;;0.55;;
66487;SDS011;53304;54.550;18.526;2024-01-15T04:47:44;0.77;;;0.70;;
66487;SDS011;53304;54.550;18.526;2024-01-15T04:50:10;1.75;;;0.80;;
66487;SDS011;53304;54.550;18.526;2024-01-15T04:52:35;3.25;;;1.33;;
66487;SDS011;53304;54.550;18.526;2024-01-15T04:55:00;1.35;;;0.80;;
66487;SDS011;53304;54.550;18.526;2024-01-15T04:57:26;0.95;;;0.60;;
66487;SDS011;53304;54.550;18.526;2024-01-15T04:59:54;1.08;;;0.60;;
66487;SDS011;53304;54.550;18.526;2024-01-15T05:02:19;1.40;;;0.57;;
66487;SDS011;53304;54.550;18.526;2024-01-15T05:04:44;2.00;;;0.60;;
66487;SDS011;53304;54.550;18.526;2024-01-15T05:07:10;2.72;;;0.70;;
66487;SDS011;53304;54.550;18.526;2024-01-15T05:09:35;2.85;;;0.63;;
66487;SDS011;53304;54.550;18.526;2024-01-15T05:12:01;1.15;;;0.70;;
66487;SDS011;53304;54.550;18.526;2024-01-15T05:14:26;2.38;;;0.77;;
66487;SDS011;53304;54.550;18.526;2024-01-15T05:16:51;1.55;;;0.55;;
66487;SDS011;53304;54.550;18.526;2024-01-15T05:19:17;0.85;;;0.73;;
66487;SDS011;53304;54.550;18.526;2024-01-15T05:21:43;2.28;;;0.98;;
66487;SDS011;53304;54.550;18.526;2024-01-15T05:24:08;2.88;;;0.80;;
66487;SDS011;53304;54.550;18.526;2024-01-15T05:26:34;1.48;;;0.70;;
66487;SDS011;53304;54.550;18.526;2024-01-15T05:28:59;1.30;;;0.55;;
66487;SDS011;53304;54.550;18.526;2024-01-15T05:31:25;1.40;;;0.57;;
66487;SDS011;53304;54.550;18.526;2024-01-15T05:33:52;0.88;;;0.60;;
66487;SDS011;53304;54.550;18.526;2024-01-15T05:36:18;0.60;;;0.60;;
66487;SDS011;53304;54.550;18.526;2024-01-15T05:38:43;0.93;;;0.70;;
66487;SDS011;53304;54.550;18.526;2024-01-15T05:41:09;1.15;;;0.73;;
66487;SDS011;53304;54.550;18.526;2024-01-15T05:43:34;1.55;;;0.52;;
66487;SDS011;53304;54.550;18.526;2024-01-15T05:46:02;1.40;;;0.73;;
66487;SDS011;53304;54.550;18.526;2024-01-15T05:48:28;0.85;;;0.57;;
66487;SDS011;53304;54.550;18.526;2024-01-15T05:50:53;0.75;;;0.60;;
66487;SDS011;53304;54.550;18.526;2024-01-15T05:53:18;0.85;;;0.60;;
66487;SDS011;53304;54.550;18.526;2024-01-15T05:55:44;1.05;;;0.70;;
66487;SDS011;53304;54.550;18.526;2024-01-15T05:58:09;1.67;;;0.80;;
66487;SDS011;53304;54.550;18.526;2024-01-15T06:00:35;1.08;;;0.63;;
66487;SDS011;53304;54.550;18.526;2024-01-15T06:03:00;2.10;;;0.70;;
66487;SDS011;53304;54.550;18.526;2024-01-15T06:05:28;0.75;;;0.50;;
66487;SDS011;53304;54.550;18.526;2024-01-15T06:07:53;0.60;;;0.40;;
66487;SDS011;53304;54.550;18.526;2024-01-15T06:10:19;0.77;;;0.68;;
66487;SDS011;53304;54.550;18.526;2024-01-15T06:12:44;1.27;;;0.65;;
66487;SDS011;53304;54.550;18.526;2024-01-15T06:15:09;1.80;;;0.60;;
66487;SDS011;53304;54.550;18.526;2024-01-15T06:17:38;0.63;;;0.52;;
66487;SDS011;53304;54.550;18.526;2024-01-15T06:20:03;0.68;;;0.50;;
66487;SDS011;53304;54.550;18.526;2024-01-15T06:22:29;1.33;;;0.40;;
66487;SDS011;53304;54.550;18.526;2024-01-15T06:24:54;0.50;;;0.50;;
66487;SDS011;53304;54.550;18.526;2024-01-15T06:27:20;1.65;;;0.70;;
66487;SDS011;53304;54.550;18.526;2024-01-15T06:29:46;2.58;;;0.60;;
66487;SDS011;53304;54.550;18.526;2024-01-15T06:32:14;1.30;;;0.52;;
66487;SDS011;53304;54.550;18.526;2024-01-15T06:34:40;0.40;;;0.40;;
66487;SDS011;53304;54.550;18.526;2024-01-15T06:37:05;2.63;;;1.13;;
66487;SDS011;53304;54.550;18.526;2024-01-15T06:39:31;1.27;;;0.60;;
66487;SDS011;53304;54.550;18.526;2024-01-15T06:41:56;2.15;;;0.60;;
66487;SDS011;53304;54.550;18.526;2024-01-15T06:44:22;1.33;;;0.60;;
66487;SDS011;53304;54.550;18.526;2024-01-15T06:46:47;0.70;;;0.55;;
66487;SDS011;53304;54.550;18.526;2024-01-15T06:49:13;1.30;;;0.77;;
66487;SDS011;53304;54.550;18.526;2024-01-15T06:51:38;0.82;;;0.52;;
66487;SDS011;53304;54.550;18.526;2024-01-15T06:54:06;1.20;;;0.60;;
66487;SDS011;53304;54.550;18.526;2024-01-15T06:56:32;2.03;;;0.70;;
66487;SDS011;53304;54.550;18.526;2024-01-15T06:58:57;1.17;;;0.60;;
66487;SDS011;53304;54.550;18.526;2024-01-15T07:01:23;1.15;;;0.50;;
66487;SDS011;53304;54.550;18.526;2024-01-15T07:03:51;1.02;;;0.70;;
66487;SDS011;53304;54.550;18.526;2024-01-15T07:06:16;1.50;;;0.80;;
66487;SDS011;53304;54.550;18.526;2024-01-15T07:08:42;0.95;;;0.60;;
66487;SDS011;53304;54.550;18.526;2024-01-15T07:11:08;2.15;;;0.70;;
66487;SDS011;53304;54.550;18.526;2024-01-15T07:13:33;1.10;;;0.90;;
66487;SDS011;53304;54.550;18.526;2024-01-15T07:15:59;1.20;;;0.80;;
66487;SDS011;53304;54.550;18.526;2024-01-15T07:18:24;1.35;;;0.60;;
66487;SDS011;53304;54.550;18.526;2024-01-15T07:20:50;0.82;;;0.60;;
66487;SDS011;53304;54.550;18.526;2024-01-15T07:23:16;1.85;;;0.75;;
66487;SDS011;53304;54.550;18.526;2024-01-15T07:25:42;0.95;;;0.73;;
66487;SDS011;53304;54.550;18.526;2024-01-15T07:28:08;1.08;;;0.60;;
66487;SDS011;53304;54.550;18.526;2024-01-15T07:30:33;0.70;;;0.68;;
66487;SDS011;53304;54.550;18.526;2024-01-15T07:32:59;2.83;;;1.00;;
66487;SDS011;53304;54.550;18.526;2024-01-15T07:35:24;1.52;;;0.82;;
66487;SDS011;53304;54.550;18.526;2024-01-15T07:37:50;1.45;;;0.73;;
66487;SDS011;53304;54.550;18.526;2024-01-15T07:40:15;1.88;;;0.75;;
66487;SDS011;53304;54.550;18.526;2024-01-15T07:42:41;3.80;;;0.70;;
66487;SDS011;53304;54.550;18.526;2024-01-15T07:45:07;2.08;;;0.85;;
66487;SDS011;53304;54.550;18.526;2024-01-15T07:47:33;1.70;;;0.75;;
66487;SDS011;53304;54.550;18.526;2024-01-15T07:50:01;1.77;;;0.73;;
66487;SDS011;53304;54.550;18.526;2024-01-15T07:52:27;1.00;;;0.63;;
66487;SDS011;53304;54.550;18.526;2024-01-15T07:54:52;2.13;;;1.10;;
66487;SDS011;53304;54.550;18.526;2024-01-15T07:57:17;1.17;;;0.70;;
66487;SDS011;53304;54.550;18.526;2024-01-15T07:59:43;1.40;;;0.82;;
66487;SDS011;53304;54.550;18.526;2024-01-15T08:02:08;1.20;;;0.85;;
66487;SDS011;53304;54.550;18.526;2024-01-15T08:04:36;2.70;;;0.90;;
66487;SDS011;53304;54.550;18.526;2024-01-15T08:07:02;2.45;;;1.10;;
66487;SDS011;53304;54.550;18.526;2024-01-15T08:09:28;1.60;;;0.80;;
66487;SDS011;53304;54.550;18.526;2024-01-15T08:11:56;1.67;;;0.80;;
66487;SDS011;53304;54.550;18.526;2024-01-15T08:14:21;2.25;;;0.90;;
66487;SDS011;53304;54.550;18.526;2024-01-15T08:16:46;2.30;;;0.80;;
66487;SDS011;53304;54.550;18.526;2024-01-15T08:19:12;5.85;;;1.48;;
66487;SDS011;53304;54.550;18.526;2024-01-15T08:21:39;2.45;;;1.08;;
66487;SDS011;53304;54.550;18.526;2024-01-15T08:24:05;5.40;;;1.10;;
66487;SDS011;53304;54.550;18.526;2024-01-15T08:26:31;6.25;;;1.40;;
66487;SDS011;53304;54.550;18.526;2024-01-15T08:28:58;3.55;;;1.08;;
66487;SDS011;53304;54.550;18.526;2024-01-15T08:31:24;2.45;;;1.10;;
66487;SDS011;53304;54.550;18.526;2024-01-15T08:33:49;2.42;;;0.90;;
66487;SDS011;53304;54.550;18.526;2024-01-15T08:36:14;3.70;;;0.80;;
66487;SDS011;53304;54.550;18.526;2024-01-15T08:38:40;3.00;;;1.13;;
66487;SDS011;53304;54.550;18.526;2024-01-15T08:41:05;6.78;;;0.85;;
66487;SDS011;53304;54.550;18.526;2024-01-15T08:43:31;1.92;;;0.60;;
66487;SDS011;53304;54.550;18.526;2024-01-15T08:45:59;4.18;;;1.00;;
66487;SDS011;53304;54.550;18.526;2024-01-15T08:48:25;1.35;;;0.85;;
66487;SDS011;53304;54.550;18.526;2024-01-15T08:50:53;4.43;;;1.00;;
66487;SDS011;53304;54.550;18.526;2024-01-15T08:53:19;1.92;;;0.90;;
66487;SDS011;53304;54.550;18.526;2024-01-15T08:55:48;2.20;;;1.00;;
66487;SDS011;53304;54.550;18.526;2024-01-15T08:58:14;3.20;;;0.80;;
66487;SDS011;53304;54.550;18.526;2024-01-15T09:00:39;2.40;;;0.80;;
66487;SDS011;53304;54.550;18.526;2024-01-15T09:03:05;11.50;;;1.35;;
66487;SDS011;53304;54.550;18.526;2024-01-15T09:05:30;2.22;;;0.90;;
66487;SDS011;53304;54.550;18.526;2024-01-15T09:07:58;6.10;;;1.10;;
66487;SDS011;53304;54.550;18.526;2024-01-15T09:10:26;1.95;;;0.88;;
66487;SDS011;53304;54.550;18.526;2024-01-15T09:12:51;6.82;;;1.05;;
66487;SDS011;53304;54.550;18.526;2024-01-15T09:15:17;2.03;;;0.90;;
66487;SDS011;53304;54.550;18.526;2024-01-15T09:17:42;3.58;;;1.17;;
66487;SDS011;53304;54.550;18.526;2024-01-15T09:20:08;2.28;;;1.00;;
66487;SDS011;53304;54.550;18.526;2024-01-15T09:22:34;2.67;;;1.38;;
66487;SDS011;53304;54.550;18.526;2024-01-15T09:25:00;3.08;;;1.27;;
66487;SDS011;53304;54.550;18.526;2024-01-15T09:27:26;2.03;;;1.00;;
66487;SDS011;53304;54.550;18.526;2024-01-15T09:29:52;3.53;;;0.90;;
66487;SDS011;53304;54.550;18.526;2024-01-15T09:32:17;2.45;;;1.10;;
66487;SDS011;53304;54.550;18.526;2024-01-15T09:34:43;2.17;;;0.90;;
66487;SDS011;53304;54.550;18.526;2024-01-15T09:37:08;2.08;;;1.00;;
66487;SDS011;53304;54.550;18.526;2024-01-15T09:39:34;1.75;;;0.95;;
66487;SDS011;53304;54.550;18.526;2024-01-15T09:41:59;1.52;;;0.80;;
66487;SDS011;53304;54.550;18.526;2024-01-15T09:44:25;2.42;;;0.93;;
66487;SDS011;53304;54.550;18.526;2024-01-15T09:46:51;3.35;;;1.45;;
66487;SDS011;53304;54.550;18.526;2024-01-15T09:49:17;1.92;;;0.90;;
66487;SDS011;53304;54.550;18.526;2024-01-15T09:51:42;3.50;;;0.90;;
66487;SDS011;53304;54.550;18.526;2024-01-15T09:54:08;3.67;;;1.15;;
66487;SDS011;53304;54.550;18.526;2024-01-15T09:56:46;2.72;;;1.00;;
66487;SDS011;53304;54.550;18.526;2024-01-15T09:59:14;2.45;;;0.80;;
66487;SDS011;53304;54.550;18.526;2024-01-15T10:01:40;0.80;;;0.70;;
66487;SDS011;53304;54.550;18.526;2024-01-15T10:04:11;2.92;;;0.90;;
66487;SDS011;53304;54.550;18.526;2024-01-15T10:06:46;2.00;;;0.73;;
66487;SDS011;53304;54.550;18.526;2024-01-15T10:09:13;1.67;;;0.80;;
66487;SDS011;53304;54.550;18.526;2024-01-15T10:11:40;1.60;;;0.80;;
66487;SDS011;53304;54.550;18.526;2024-01-15T10:14:09;1.65;;;0.82;;
66487;SDS011;53304;54.550;18.526;2024-01-15T10:16:37;1.42;;;0.75;;
66487;SDS011;53304;54.550;18.526;2024-01-15T10:19:04;2.50;;;0.82;;
66487;SDS011;53304;54.550;18.526;2024-01-15T10:21:31;1.23;;;0.70;;
66487;SDS011;53304;54.550;18.526;2024-01-15T10:23:59;2.97;;;0.85;;
66487;SDS011;53304;54.550;18.526;2024-01-15T10:26:25;1.58;;;0.85;;
66487;SDS011;53304;54.550;18.526;2024-01-15T10:28:51;0.93;;;0.57;;
66487;SDS011;53304;54.550;18.526;2024-01-15T10:31:19;2.58;;;1.00;;
66487;SDS011;53304;54.550;18.526;2024-01-15T10:33:46;2.22;;;0.88;;
66487;SDS011;53304;54.550;18.526;2024-01-15T10:36:15;8.13;;;1.30;;
66487;SDS011;53304;54.550;18.526;2024-01-15T10:38:42;5.13;;;1.60;;
66487;SDS011;53304;54.550;18.526;2024-01-15T10:41:08;4.00;;;0.85;;
66487;SDS011;53304;54.550;18.526;2024-01-15T10:43:33;6.38;;;1.52;;
66487;SDS011;53304;54.550;18.526;2024-01-15T10:45:59;5.50;;;1.67;;
66487;SDS011;53304;54.550;18.526;2024-01-15T10:48:25;5.47;;;1.50;;
66487;SDS011;53304;54.550;18.526;2024-01-15T10:50:53;4.40;;;1.10;;
66487;SDS011;53304;54.550;18.526;2024-01-15T10:53:18;7.43;;;1.60;;
66487;SDS011;53304;54.550;18.526;2024-01-15T10:55:44;7.20;;;1.88;;
66487;SDS011;53304;54.550;18.526;2024-01-15T10:58:12;5.65;;;1.48;;
66487;SDS011;53304;54.550;18.526;2024-01-15T11:00:39;4.70;;;1.25;;
66487;SDS011;53304;54.550;18.526;2024-01-15T11:03:05;4.72;;;1.38;;
66487;SDS011;53304;54.550;18.526;2024-01-15T11:05:41;4.85;;;1.23;;
66487;SDS011;53304;54.550;18.526;2024-01-15T11:08:07;7.68;;;1.55;;
66487;SDS011;53304;54.550;18.526;2024-01-15T11:10:39;4.47;;;1.23;;
66487;SDS011;53304;54.550;18.526;2024-01-15T11:16:00;5.70;;;1.63;;
66487;SDS011;53304;54.550;18.526;2024-01-15T11:18:27;5.63;;;1.38;;
66487;SDS011;53304;54.550;18.526;2024-01-15T11:21:22;5.35;;;1.20;;
66487;SDS011;53304;54.550;18.526;2024-01-15T11:23:57;3.25;;;1.10;;
66487;SDS011;53304;54.550;18.526;2024-01-15T11:26:27;3.78;;;1.10;;
66487;SDS011;53304;54.550;18.526;2024-01-15T11:28:59;4.05;;;1.17;;
66487;SDS011;53304;54.550;18.526;2024-01-15T11:31:26;4.05;;;1.23;;
66487;SDS011;53304;54.550;18.526;2024-01-15T11:33:55;2.78;;;1.10;;
66487;SDS011;53304;54.550;18.526;2024-01-15T11:36:21;5.63;;;1.30;;
66487;SDS011;53304;54.550;18.526;2024-01-15T11:41:55;3.53;;;0.88;;
66487;SDS011;53304;54.550;18.526;2024-01-15T11:44:30;3.50;;;1.30;;
66487;SDS011;53304;54.550;18.526;2024-01-15T11:55:11;2.17;;;1.17;;
66487;SDS011;53304;54.550;18.526;2024-01-15T11:57:41;4.00;;;1.05;;
66487;SDS011;53304;54.550;18.526;2024-01-15T12:02:54;4.38;;;1.17;;
66487;SDS011;53304;54.550;18.526;2024-01-15T12:05:21;3.67;;;0.93;;
66487;SDS011;53304;54.550;18.526;2024-01-15T12:07:47;4.22;;;1.20;;
66487;SDS011;53304;54.550;18.526;2024-01-15T12:10:16;3.17;;;0.90;;
66487;SDS011;53304;54.550;18.526;2024-01-15T12:15:30;2.97;;;1.02;;
66487;SDS011;53304;54.550;18.526;2024-01-15T12:17:59;4.32;;;0.82;;
66487;SDS011;53304;54.550;18.526;2024-01-15T12:23:33;5.03;;;0.90;;
66487;SDS011;53304;54.550;18.526;2024-01-15T12:25:59;4.03;;;1.00;;
66487;SDS011;53304;54.550;18.526;2024-01-15T12:28:27;3.80;;;1.05;;
66487;SDS011;53304;54.550;18.526;2024-01-15T12:30:52;3.45;;;0.90;;
66487;SDS011;53304;54.550;18.526;2024-01-15T12:33:18;3.65;;;0.90;;
66487;SDS011;53304;54.550;18.526;2024-01-15T12:35:45;4.72;;;1.25;;
66487;SDS011;53304;54.550;18.526;2024-01-15T12:38:10;2.47;;;0.82;;
66487;SDS011;53304;54.550;18.526;2024-01-15T12:40:36;1.95;;;0.80;;
66487;SDS011;53304;54.550;18.526;2024-01-15T12:43:02;2.63;;;0.80;;
66487;SDS011;53304;54.550;18.526;2024-01-15T12:45:27;2.95;;;1.00;;
66487;SDS011;53304;54.550;18.526;2024-01-15T12:47:53;3.33;;;0.98;;
66487;SDS011;53304;54.550;18.526;2024-01-15T12:50:18;2.45;;;1.08;;
66487;SDS011;53304;54.550;18.526;2024-01-15T12:52:44;2.63;;;0.82;;
66487;SDS011;53304;54.550;18.526;2024-01-15T12:55:10;2.03;;;0.95;;
66487;SDS011;53304;54.550;18.526;2024-01-15T12:57:36;3.65;;;1.00;;
66487;SDS011;53304;54.550;18.526;2024-01-15T13:00:05;1.23;;;0.80;;
66487;SDS011;53304;54.550;18.526;2024-01-15T13:02:37;1.88;;;0.80;;
66487;SDS011;53304;54.550;18.526;2024-01-15T13:05:06;2.55;;;0.98;;
66487;SDS011;53304;54.550;18.526;2024-01-15T13:07:33;2.13;;;0.93;;
66487;SDS011;53304;54.550;18.526;2024-01-15T13:09:59;3.25;;;0.95;;
66487;SDS011;53304;54.550;18.526;2024-01-15T13:12:24;1.35;;;0.93;;
66487;SDS011;53304;54.550;18.526;2024-01-15T13:14:52;2.08;;;0.70;;
66487;SDS011;53304;54.550;18.526;2024-01-15T13:17:18;2.13;;;0.70;;
66487;SDS011;53304;54.550;18.526;2024-01-15T13:19:45;2.28;;;0.90;;
66487;SDS011;53304;54.550;18.526;2024-01-15T13:22:11;1.63;;;1.00;;
66487;SDS011;53304;54.550;18.526;2024-01-15T13:24:39;2.08;;;0.80;;
66487;SDS011;53304;54.550;18.526;2024-01-15T13:27:04;2.22;;;0.80;;
66487;SDS011;53304;54.550;18.526;2024-01-15T13:29:30;1.67;;;0.90;;
66487;SDS011;53304;54.550;18.526;2024-01-15T13:31:56;2.78;;;1.10;;
66487;SDS011;53304;54.550;18.526;2024-01-15T13:34:22;2.47;;;0.80;;
66487;SDS011;53304;54.550;18.526;2024-01-15T13:36:48;2.33;;;0.90;;
66487;SDS011;53304;54.550;18.526;2024-01-15T13:39:15;2.10;;;0.93;;
66487;SDS011;53304;54.550;18.526;2024-01-15T13:41:44;4.38;;;0.90;;
66487;SDS011;53304;54.550;18.526;2024-01-15T13:44:13;3.47;;;1.00;;
66487;SDS011;53304;54.550;18.526;2024-01-15T13:46:38;4.50;;;1.00;;
66487;SDS011;53304;54.550;18.526;2024-01-15T13:49:03;3.42;;;0.80;;
66487;SDS011;53304;54.550;18.526;2024-01-15T13:51:31;1.45;;;0.80;;
66487;SDS011;53304;54.550;18.526;2024-01-15T13:53:56;1.33;;;0.70;;
66487;SDS011;53304;54.550;18.526;2024-01-15T13:56:22;2.08;;;0.75;;
66487;SDS011;53304;54.550;18.526;2024-01-15T13:58:50;2.22;;;0.90;;
66487;SDS011;53304;54.550;18.526;2024-01-15T14:01:17;2.85;;;0.98;;
66487;SDS011;53304;54.550;18.526;2024-01-15T14:03:45;5.32;;;1.77;;
66487;SDS011;53304;54.550;18.526;2024-01-15T14:06:10;3.72;;;2.00;;
66487;SDS011;53304;54.550;18.526;2024-01-15T14:08:36;3.20;;;1.70;;
66487;SDS011;53304;54.550;18.526;2024-01-15T14:11:02;4.72;;;1.60;;
66487;SDS011;53304;54.550;18.526;2024-01-15T14:13:28;5.22;;;1.88;;
66487;SDS011;53304;54.550;18.526;2024-01-15T14:15:54;4.20;;;1.52;;
66487;SDS011;53304;54.550;18.526;2024-01-15T14:18:20;6.10;;;1.98;;
66487;SDS011;53304;54.550;18.526;2024-01-15T14:20:46;4.70;;;1.90;;
66487;SDS011;53304;54.550;18.526;2024-01-15T14:23:12;4.50;;;1.83;;
66487;SDS011;53304;54.550;18.526;2024-01-15T14:25:38;3.63;;;1.70;;
66487;SDS011;53304;54.550;18.526;2024-01-15T14:28:04;4.97;;;2.08;;
66487;SDS011;53304;54.550;18.526;2024-01-15T14:30:30;4.57;;;1.98;;
66487;SDS011;53304;54.550;18.526;2024-01-15T14:32:55;4.45;;;2.22;;
66487;SDS011;53304;54.550;18.526;2024-01-15T14:35:20;4.75;;;2.10;;
66487;SDS011;53304;54.550;18.526;2024-01-15T14:37:46;4.38;;;2.22;;
66487;SDS011;53304;54.550;18.526;2024-01-15T14:40:13;4.13;;;1.83;;
66487;SDS011;53304;54.550;18.526;2024-01-15T14:42:41;6.43;;;2.60;;
66487;SDS011;53304;54.550;18.526;2024-01-15T14:45:09;6.18;;;2.40;;
66487;SDS011;53304;54.550;18.526;2024-01-15T14:47:40;5.43;;;2.70;;
66487;SDS011;53304;54.550;18.526;2024-01-15T14:53:28;8.95;;;2.70;;
66487;SDS011;53304;54.550;18.526;2024-01-15T14:55:55;7.60;;;2.72;;
66487;SDS011;53304;54.550;18.526;2024-01-15T14:58:21;6.82;;;2.88;;